• Join FlightAware (Why Join?)
  • Login
  • US Flag 
06:06AM EDT


 

Airport Tracker/Info


-or-


 

Live Flight TrackerFlight Track Log ✈ SWA558 ✈ 17-Apr-2013 ✈ KMDW - KAUS

Flight Track Log - Related Links

Times and Time Zones

All times are in EDT time to prevent confusion due to time zone crossing. See the SWA558 flight status page for this flight to view local times or setup timezone preferences in your user account.

Time Position Orientation Groundspeed Altitude Reporting Facility
EDT Latitude Longitude Course Direction KTS MPH feet Rate Location/Type
03:59PM 41.7844 -87.6869 207° Southwest 183 211 3,400  Level Chicago Center
04:00PM 41.7258 -87.6939 185° South 241 277 5,000 2,040 Climbing Chicago Center
04:01PM 41.6744 -87.7506 219° Southwest 242 278 7,700 3,180 Climbing Chicago Center
04:02PM 41.6300 -87.8175 228° Southwest 242 278 11,600 2,760 Climbing Chicago Center
04:03PM 41.5822 -87.8939 230° Southwest 267 307 13,400 2,520 Climbing Chicago Center
04:04PM 41.3638 -88.1797 207° Southwest  Level FlightAware Approximate
04:04PM 41.5122 -88.0047 230° Southwest 324 373 16,800  Level Chicago Center
04:05PM 41.4597 -88.0872 230° Southwest 335 386 19,500 2,340 Climbing Chicago Center
04:06PM 41.3897 -88.1856 227° Southwest 346 398 21,600 1,860 Climbing Chicago Center
04:07PM 41.2947 -88.2297 199° South 370 426 23,400 1,800 Climbing Chicago Center
04:08PM 41.1722 -88.2858 199° South 390 449 25,300 1,560 Climbing Chicago Center
04:09PM 41.0642 -88.3347 199° South 407 468 26,600 1,260 Climbing Chicago Center
04:10PM 40.9497 -88.3869 199° South 428 493 27,900 1,260 Climbing Chicago Center
04:11PM 40.8333 -88.4389 199° South 441 507 29,200 1,620 Climbing Chicago Center
04:12PM 40.7156 -88.4908 198° South 447 514 31,300 1,800 Climbing Chicago Center
04:13PM 40.5992 -88.5406 198° South 442 509 32,900 1,500 Climbing Chicago Center
04:14PM 40.4850 -88.5911 199° South 436 502 34,400 1,380 Climbing Chicago Center
04:15PM 40.3653 -88.6436 198° South 436 502 35,800 1,200 Climbing Chicago Center
04:16PM 40.2672 -88.7286 213° Southwest 423 487 36,900 1,020 Climbing Chicago Center
04:18PM 40.1656 -88.8614 225° Southwest 426 490 38,000 540 Climbing Chicago Center
04:18PM 40.0964 -88.9464 223° Southwest 423 487 38,000  Level Kansas City Center
04:19PM 40.0119 -89.0536 224° Southwest 423 487 38,000  Level Kansas City Center
04:21PM 39.9272 -89.1608 224° Southwest 423 487 38,000  Level Kansas City Center
04:22PM 39.8417 -89.2706 225° Southwest 427 491 38,000  Level Kansas City Center
04:23PM 39.7378 -89.3997 224° Southwest 429 494 38,000  Level Kansas City Center
04:24PM 39.6575 -89.4994 224° Southwest 429 494 38,000  Level Kansas City Center
04:25PM 39.5714 -89.6067 224° Southwest 430 495 38,000  Level Kansas City Center
04:26PM 39.4839 -89.7147 224° Southwest 433 498 38,000  Level Kansas City Center
04:27PM 39.3797 -89.8450 224° Southwest 435 501 38,000  Level Kansas City Center
04:28PM 39.2928 -89.9525 224° Southwest 435 501 38,000  Level Kansas City Center
04:29PM 39.2067 -90.0597 224° Southwest 432 497 38,000  Level Kansas City Center
04:30PM 39.1200 -90.1650 223° Southwest 430 495 38,000  Level Kansas City Center
04:31PM 39.0342 -90.2711 224° Southwest 431 496 38,000  Level Kansas City Center
04:32PM 38.9314 -90.3969 224° Southwest 430 495 38,000  Level Kansas City Center
04:33PM 38.8539 -90.4922 224° Southwest 427 491 38,000  Level Kansas City Center
04:34PM 38.7581 -90.5894 218° Southwest 438 504 38,000  Level Kansas City Center
04:35PM 38.6681 -90.7022 224° Southwest 457 526 38,000  Level Kansas City Center
04:36PM 38.5611 -90.8267 222° Southwest 449 517 38,000  Level Kansas City Center
04:37PM 38.4733 -90.9269 222° Southwest 437 503 38,000  Level Kansas City Center
04:38PM 38.3831 -91.0294 222° Southwest 436 502 38,000  Level Kansas City Center
04:39PM 38.2950 -91.1308 222° Southwest 432 497 38,000  Level Kansas City Center
04:40PM 38.2086 -91.2317 223° Southwest 428 493 38,000  Level Kansas City Center
04:41PM 38.1058 -91.3453 221° Southwest 409 471 38,000  Level Kansas City Center
04:42PM 38.0203 -91.4428 222° Southwest 408 470 38,000  Level Kansas City Center
04:43PM 37.9311 -91.5417 221° Southwest 416 479 38,000  Level Kansas City Center
04:44PM 37.8428 -91.6397 221° Southwest 419 482 38,000  Level Kansas City Center
04:45PM 37.7561 -91.7375 222° Southwest 417 480 38,000  Level Kansas City Center
04:46PM 37.6708 -91.8344 222° Southwest 411 473 38,000  Level Kansas City Center
04:47PM 37.5825 -91.9308 221° Southwest 414 476 38,000  Level Kansas City Center
04:48PM 37.4961 -92.0294 222° Southwest 415 478 38,000  Level Kansas City Center
04:49PM 37.4089 -92.1244 221° Southwest 413 475 38,000  Level Kansas City Center
04:50PM 37.3058 -92.2381 221° Southwest 409 471 38,000  Level Kansas City Center
04:52PM 37.2178 -92.3342 221° Southwest 412 474 38,000  Level Kansas City Center
04:53PM 37.1283 -92.4333 221° Southwest 421 484 38,000  Level Kansas City Center
04:54PM 37.0400 -92.5303 221° Southwest 421 484 38,000  Level Kansas City Center
04:55PM 36.9514 -92.6256 221° Southwest 420 483 38,000  Level Kansas City Center
04:56PM 36.8639 -92.7206 221° Southwest 417 480 38,000  Level Kansas City Center
04:56PM 36.8128 -92.7772 222° Southwest 420 483 38,000  Level Memphis Center
04:57PM 36.7275 -92.8706 221° Southwest 420 483 38,000  Level Memphis Center
04:58PM 36.6422 -92.9636 221° Southwest 420 483 38,000  Level Memphis Center
04:59PM 36.5528 -93.0536 219° Southwest 420 483 38,000  Level Memphis Center
05:00PM 36.4672 -93.1464 221° Southwest 420 483 38,000  Level Memphis Center
05:01PM 36.3797 -93.2389 220° Southwest 415 478 38,000  Level Memphis Center
05:02PM 36.2942 -93.3283 220° Southwest 410 472 38,000  Level Memphis Center
05:03PM 36.2067 -93.4206 220° Southwest 410 472 38,000  Level Memphis Center
05:04PM 36.1189 -93.5122 220° Southwest 410 472 38,000  Level Memphis Center
05:05PM 36.0353 -93.6014 221° Southwest 410 472 38,000  Level Memphis Center
05:06PM 35.9517 -93.6878 220° Southwest 410 472 38,000  Level Memphis Center
05:07PM 35.8656 -93.7792 221° Southwest 410 472 38,000  Level Memphis Center
05:08PM 35.7819 -93.8653 220° Southwest 410 472 38,000  Level Memphis Center
05:09PM 35.6961 -93.9536 220° Southwest 410 472 38,000  Level Memphis Center
05:10PM 35.6100 -94.0419 220° Southwest 410 472 38,000  Level Memphis Center
05:11PM 35.5197 -94.1372 221° Southwest 405 466 38,000  Level Memphis Center
05:12PM 35.4356 -94.2253 220° Southwest 405 466 38,000  Level Memphis Center
05:13PM 35.3414 -94.3022 214° Southwest 410 472 38,000  Level Memphis Center
05:14PM 35.2472 -94.3767 213° Southwest 410 472 38,000  Level Memphis Center
05:15PM 35.1531 -94.4483 212° Southwest 410 472 38,000  Level Memphis Center
05:16PM 35.0589 -94.5225 213° Southwest 405 466 38,000  Level Memphis Center
05:18PM 34.8900 -94.6544 213° Southwest 380 437 38,000  Level Fort Worth Center
05:19PM 34.7914 -94.7283 212° Southwest 418 481 38,000  Level Fort Worth Center
05:20PM 34.6928 -94.8047 213° Southwest 448 516 38,000  Level Fort Worth Center
05:21PM 34.5964 -94.8783 212° Southwest 421 484 38,000  Level Fort Worth Center
05:22PM 34.4978 -94.9517 212° Southwest 421 484 38,000  Level Fort Worth Center
05:23PM 34.4050 -95.0172 210° Southwest 416 479 38,000  Level Fort Worth Center
05:24PM 34.3064 -95.0956 213° Southwest 416 479 38,000  Level Fort Worth Center
05:25PM 34.2117 -95.1633 211° Southwest 416 479 38,000  Level Fort Worth Center
05:26PM 34.1169 -95.2336 212° Southwest 416 479 38,000  Level Fort Worth Center
05:27PM 34.0222 -95.3061 212° Southwest 411 473 38,000  Level Fort Worth Center
05:28PM 33.9253 -95.3758 211° Southwest 411 473 38,000  Level Fort Worth Center
05:29PM 33.8303 -95.4456 211° Southwest 403 464 38,000  Level Fort Worth Center
05:30PM 33.7353 -95.5128 210° Southwest 408 470 38,000  Level Fort Worth Center
05:31PM 33.6425 -95.5822 212° Southwest 408 470 38,000  Level Fort Worth Center
05:32PM 33.5619 -95.6411 211° Southwest 394 453 38,000  Level Fort Worth Center
05:33PM 33.4711 -95.7078 211° Southwest 389 448 38,000  Level Fort Worth Center
05:34PM 33.3781 -95.7742 211° Southwest 389 448 38,000  Level Fort Worth Center
05:35PM 33.2850 -95.8381 210° Southwest 389 448 38,000  Level Fort Worth Center
05:36PM 33.1939 -95.9067 212° Southwest 389 448 38,000  Level Fort Worth Center
05:37PM 33.0925 -95.9803 211° Southwest 389 448 38,000  Level Fort Worth Center
05:38PM 32.9992 -96.0461 211° Southwest 389 448 38,000  Level Fort Worth Center
05:39PM 32.9039 -96.1144 211° Southwest 396 456 38,000  Level Fort Worth Center
05:40PM 32.8106 -96.1825 212° Southwest 401 461 38,000  Level Fort Worth Center
05:41PM 32.7175 -96.2481 211° Southwest 396 456 38,000  Level Fort Worth Center
05:42PM 32.6239 -96.3133 210° Southwest 396 456 38,000  Level Fort Worth Center
05:43PM 32.5306 -96.3808 211° Southwest 396 456 38,000  Level Fort Worth Center
05:44PM 32.4433 -96.4436 211° Southwest 401 461 38,000  Level Fort Worth Center
05:45PM 32.3500 -96.5108 211° Southwest 400 460 38,000 -180 Level Fort Worth Center
05:46PM 32.2544 -96.5781 211° Southwest 400 460 37,700 -600 Descending Fort Worth Center
05:47PM 32.1589 -96.6428 210° Southwest 400 460 36,800 -960 Descending Fort Worth Center
05:48PM 32.0611 -96.7122 211° Southwest 405 466 35,800 -1,020 Descending Fort Worth Center
05:49PM 31.9550 -96.7867 211° Southwest 412 474 34,800 -1,200 Descending Fort Worth Center
05:50PM 31.8675 -96.8508 212° Southwest 412 474 33,500 -1,680 Descending Fort Worth Center
05:51PM 31.7739 -96.9150 210° Southwest 406 467 31,500 -2,040 Descending Fort Worth Center
05:52PM 31.6864 -96.9789 212° Southwest 393 452 29,500 -1,980 Descending Fort Worth Center
05:53PM 31.5989 -97.0378 210° Southwest 373 429 27,600 -1,920 Descending Fort Worth Center
05:53PM 31.5706 -97.0558 209° Southwest 354 407 27,100 -1,800 Descending Houston Center
05:54PM 31.4842 -97.1011 204° Southwest 342 394 25,300 -1,800 Descending Houston Center
05:55PM 31.3961 -97.1361 199° South 333 383 23,500 -1,740 Descending Houston Center
05:56PM 31.3083 -97.1700 198° South 329 379 21,800 -1,680 Descending Houston Center
05:57PM 31.2225 -97.2036 199° South 324 373 20,100 -1,260 Descending Houston Center
05:58PM 31.1397 -97.2358 198° South 313 360 19,300 -1,260 Descending Houston Center
05:59PM 31.0478 -97.2722 199° South 300 345 17,500 -1,620 Descending Houston Center
06:00PM 30.9725 -97.3028 199° South 292 336 16,000 -1,440 Descending Houston Center
06:02PM 30.8961 -97.3308 197° South 295 339 14,600 -1,560 Descending Houston Center
06:03PM 30.8075 -97.3644 198° South 287 330 12,800 -1,560 Descending Houston Center
06:04PM 30.7314 -97.3944 199° South 286 329 11,400 -1,440 Descending Houston Center
06:05PM 30.6697 -97.4436 214° Southwest 271 312 9,900 -1,680 Descending Houston Center
06:07PM 30.5583 -97.5478 219° Southwest 251 289 6,300 -1,800 Descending Houston Center
06:08PM 30.5064 -97.5989 220° Southwest 245 282 4,500 -1,380 Descending Houston Center
06:09PM 30.4500 -97.6417 213° Southwest 241 277 3,500 -840 Descending Houston Center
06:10PM 30.3869 -97.6639 197° South 208 239 2,800 -540 Descending Houston Center
06:11PM 30.3311 -97.6617 178° South 204 235 2,500 -300 Descending Houston Center